sensor_id;sensor_type;location;lat;lon;timestamp;temperature;humidity
21216;DHT22;10765;50.954;5.322;2023-01-28T00:00:55;4.00;1.00
21216;DHT22;10765;50.954;5.322;2023-01-28T00:03:22;4.00;1.00
21216;DHT22;10765;50.954;5.322;2023-01-28T00:05:50;4.10;1.00
21216;DHT22;10765;50.954;5.322;2023-01-28T00:08:18;4.20;1.00
21216;DHT22;10765;50.954;5.322;2023-01-28T00:10:45;4.20;1.00
21216;DHT22;10765;50.954;5.322;2023-01-28T00:13:13;4.20;1.00
21216;DHT22;10765;50.954;5.322;2023-01-28T00:15:40;4.20;1.00
21216;DHT22;10765;50.954;5.322;2023-01-28T00:18:07;4.20;1.00
21216;DHT22;10765;50.954;5.322;2023-01-28T00:20:34;4.10;1.00
21216;DHT22;10765;50.954;5.322;2023-01-28T00:23:01;4.10;1.00
21216;DHT22;10765;50.954;5.322;2023-01-28T00:25:29;4.00;1.00
21216;DHT22;10765;50.954;5.322;2023-01-28T00:27:56;4.10;1.00
21216;DHT22;10765;50.954;5.322;2023-01-28T00:30:24;4.20;1.00
21216;DHT22;10765;50.954;5.322;2023-01-28T00:32:52;4.00;1.00
21216;DHT22;10765;50.954;5.322;2023-01-28T00:35:19;4.00;1.00
21216;DHT22;10765;50.954;5.322;2023-01-28T00:37:46;4.00;1.00
21216;DHT22;10765;50.954;5.322;2023-01-28T00:40:13;4.00;1.00
21216;DHT22;10765;50.954;5.322;2023-01-28T00:42:40;4.00;1.00
21216;DHT22;10765;50.954;5.322;2023-01-28T00:45:08;4.00;1.00
21216;DHT22;10765;50.954;5.322;2023-01-28T00:47:36;4.00;1.00
21216;DHT22;10765;50.954;5.322;2023-01-28T00:50:04;4.00;1.00
21216;DHT22;10765;50.954;5.322;2023-01-28T00:52:31;4.00;1.00
21216;DHT22;10765;50.954;5.322;2023-01-28T00:54:58;4.10;1.00
21216;DHT22;10765;50.954;5.322;2023-01-28T00:57:25;4.10;1.00
21216;DHT22;10765;50.954;5.322;2023-01-28T00:59:52;4.10;1.00
21216;DHT22;10765;50.954;5.322;2023-01-28T01:02:19;4.00;1.00
21216;DHT22;10765;50.954;5.322;2023-01-28T01:04:47;4.00;1.00
21216;DHT22;10765;50.954;5.322;2023-01-28T01:07:25;4.00;1.00
21216;DHT22;10765;50.954;5.322;2023-01-28T01:09:58;4.10;1.00
21216;DHT22;10765;50.954;5.322;2023-01-28T01:12:25;4.10;1.00
21216;DHT22;10765;50.954;5.322;2023-01-28T01:14:52;4.20;1.00
21216;DHT22;10765;50.954;5.322;2023-01-28T01:17:19;4.20;1.00
21216;DHT22;10765;50.954;5.322;2023-01-28T01:19:47;4.20;1.00
21216;DHT22;10765;50.954;5.322;2023-01-28T01:22:14;4.10;1.00
21216;DHT22;10765;50.954;5.322;2023-01-28T01:24:41;4.00;1.00
21216;DHT22;10765;50.954;5.322;2023-01-28T01:27:08;4.10;1.00
21216;DHT22;10765;50.954;5.322;2023-01-28T01:29:35;4.10;1.00
21216;DHT22;10765;50.954;5.322;2023-01-28T01:32:02;4.00;1.00
21216;DHT22;10765;50.954;5.322;2023-01-28T01:34:29;3.90;1.00
21216;DHT22;10765;50.954;5.322;2023-01-28T01:36:57;3.90;1.00
21216;DHT22;10765;50.954;5.322;2023-01-28T01:39:24;3.90;1.00
21216;DHT22;10765;50.954;5.322;2023-01-28T01:41:51;3.90;1.00
21216;DHT22;10765;50.954;5.322;2023-01-28T01:44:55;3.80;1.00
21216;DHT22;10765;50.954;5.322;2023-01-28T01:47:26;3.70;1.00
21216;DHT22;10765;50.954;5.322;2023-01-28T01:49:55;3.70;1.00
21216;DHT22;10765;50.954;5.322;2023-01-28T01:52:28;3.70;1.00
21216;DHT22;10765;50.954;5.322;2023-01-28T01:55:00;3.80;1.00
21216;DHT22;10765;50.954;5.322;2023-01-28T01:57:29;3.70;1.00
21216;DHT22;10765;50.954;5.322;2023-01-28T01:59:58;3.70;1.00
21216;DHT22;10765;50.954;5.322;2023-01-28T02:02:33;3.70;1.00
21216;DHT22;10765;50.954;5.322;2023-01-28T02:05:01;3.70;1.00
21216;DHT22;10765;50.954;5.322;2023-01-28T02:07:30;3.80;1.00
21216;DHT22;10765;50.954;5.322;2023-01-28T02:09:57;3.90;1.00
21216;DHT22;10765;50.954;5.322;2023-01-28T02:12:27;3.80;1.00
21216;DHT22;10765;50.954;5.322;2023-01-28T02:14:59;3.70;1.00
21216;DHT22;10765;50.954;5.322;2023-01-28T02:17:27;3.70;1.00
21216;DHT22;10765;50.954;5.322;2023-01-28T02:19:57;3.60;1.00
21216;DHT22;10765;50.954;5.322;2023-01-28T02:25:38;3.50;1.00
21216;DHT22;10765;50.954;5.322;2023-01-28T02:28:22;3.50;1.00
21216;DHT22;10765;50.954;5.322;2023-01-28T02:30:52;3.50;1.00
21216;DHT22;10765;50.954;5.322;2023-01-28T02:33:27;3.50;1.00
21216;DHT22;10765;50.954;5.322;2023-01-28T02:35:55;3.50;1.00
21216;DHT22;10765;50.954;5.322;2023-01-28T02:38:27;3.50;1.00
21216;DHT22;10765;50.954;5.322;2023-01-28T02:41:01;3.40;1.00
21216;DHT22;10765;50.954;5.322;2023-01-28T02:43:33;3.40;1.00
21216;DHT22;10765;50.954;5.322;2023-01-28T02:46:03;3.40;1.00
21216;DHT22;10765;50.954;5.322;2023-01-28T02:48:53;3.50;1.00
21216;DHT22;10765;50.954;5.322;2023-01-28T02:51:28;3.50;1.00
21216;DHT22;10765;50.954;5.322;2023-01-28T02:54:05;3.50;1.00
21216;DHT22;10765;50.954;5.322;2023-01-28T02:56:43;3.50;1.00
21216;DHT22;10765;50.954;5.322;2023-01-28T02:59:18;3.50;1.00
21216;DHT22;10765;50.954;5.322;2023-01-28T03:02:04;3.50;1.00
21216;DHT22;10765;50.954;5.322;2023-01-28T03:04:37;3.50;1.00
21216;DHT22;10765;50.954;5.322;2023-01-28T03:07:06;3.50;1.00
21216;DHT22;10765;50.954;5.322;2023-01-28T03:09:36;3.40;1.00
21216;DHT22;10765;50.954;5.322;2023-01-28T03:12:06;3.40;1.00
21216;DHT22;10765;50.954;5.322;2023-01-28T03:14:55;3.40;1.00
21216;DHT22;10765;50.954;5.322;2023-01-28T03:17:43;3.40;1.00
21216;DHT22;10765;50.954;5.322;2023-01-28T03:20:34;3.40;1.00
21216;DHT22;10765;50.954;5.322;2023-01-28T03:23:22;3.40;1.00
21216;DHT22;10765;50.954;5.322;2023-01-28T03:26:10;3.30;1.00
21216;DHT22;10765;50.954;5.322;2023-01-28T03:28:59;3.30;1.00
21216;DHT22;10765;50.954;5.322;2023-01-28T03:31:46;3.40;1.00
21216;DHT22;10765;50.954;5.322;2023-01-28T03:34:30;3.30;1.00
21216;DHT22;10765;50.954;5.322;2023-01-28T03:37:15;3.40;1.00
21216;DHT22;10765;50.954;5.322;2023-01-28T03:39:42;3.40;1.00
21216;DHT22;10765;50.954;5.322;2023-01-28T03:42:11;3.40;1.00
21216;DHT22;10765;50.954;5.322;2023-01-28T03:44:38;3.40;1.00
21216;DHT22;10765;50.954;5.322;2023-01-28T03:47:20;3.40;1.00
21216;DHT22;10765;50.954;5.322;2023-01-28T03:49:49;3.30;1.00
21216;DHT22;10765;50.954;5.322;2023-01-28T03:52:18;3.20;1.00
21216;DHT22;10765;50.954;5.322;2023-01-28T03:54:45;3.10;1.00
21216;DHT22;10765;50.954;5.322;2023-01-28T03:57:13;3.10;1.00
21216;DHT22;10765;50.954;5.322;2023-01-28T03:59:40;3.10;1.00
21216;DHT22;10765;50.954;5.322;2023-01-28T04:02:08;3.10;1.00
21216;DHT22;10765;50.954;5.322;2023-01-28T04:04:37;3.10;1.00
21216;DHT22;10765;50.954;5.322;2023-01-28T04:07:05;3.10;1.00
21216;DHT22;10765;50.954;5.322;2023-01-28T04:09:33;3.10;1.00
21216;DHT22;10765;50.954;5.322;2023-01-28T04:12:00;3.10;1.00
21216;DHT22;10765;50.954;5.322;2023-01-28T04:14:27;3.00;1.00
21216;DHT22;10765;50.954;5.322;2023-01-28T04:16:54;3.00;1.00
21216;DHT22;10765;50.954;5.322;2023-01-28T04:19:22;3.10;1.00
21216;DHT22;10765;50.954;5.322;2023-01-28T04:21:50;3.10;1.00
21216;DHT22;10765;50.954;5.322;2023-01-28T04:24:18;3.00;1.00
21216;DHT22;10765;50.954;5.322;2023-01-28T04:26:45;3.00;1.00
21216;DHT22;10765;50.954;5.322;2023-01-28T04:29:12;3.00;1.00
21216;DHT22;10765;50.954;5.322;2023-01-28T04:31:39;3.00;1.00
21216;DHT22;10765;50.954;5.322;2023-01-28T04:34:06;3.00;1.00
21216;DHT22;10765;50.954;5.322;2023-01-28T04:36:34;3.10;1.00
21216;DHT22;10765;50.954;5.322;2023-01-28T04:39:03;3.10;1.00
21216;DHT22;10765;50.954;5.322;2023-01-28T04:41:30;3.00;1.00
21216;DHT22;10765;50.954;5.322;2023-01-28T04:43:56;3.00;1.00
21216;DHT22;10765;50.954;5.322;2023-01-28T04:46:24;3.00;1.00
21216;DHT22;10765;50.954;5.322;2023-01-28T04:48:50;3.10;1.00
21216;DHT22;10765;50.954;5.322;2023-01-28T04:51:17;3.00;1.00
21216;DHT22;10765;50.954;5.322;2023-01-28T04:53:44;3.00;1.00
21216;DHT22;10765;50.954;5.322;2023-01-28T04:56:13;3.00;1.00
21216;DHT22;10765;50.954;5.322;2023-01-28T04:58:39;3.00;1.00
21216;DHT22;10765;50.954;5.322;2023-01-28T05:01:07;3.00;1.00
21216;DHT22;10765;50.954;5.322;2023-01-28T05:03:34;3.00;1.00
21216;DHT22;10765;50.954;5.322;2023-01-28T05:06:01;3.00;1.00
21216;DHT22;10765;50.954;5.322;2023-01-28T05:08:29;3.00;1.00
21216;DHT22;10765;50.954;5.322;2023-01-28T05:10:55;3.10;1.00
21216;DHT22;10765;50.954;5.322;2023-01-28T05:13:24;3.10;1.00
21216;DHT22;10765;50.954;5.322;2023-01-28T05:15:51;3.10;1.00
21216;DHT22;10765;50.954;5.322;2023-01-28T05:18:18;3.00;1.00
21216;DHT22;10765;50.954;5.322;2023-01-28T05:20:46;3.00;1.00
21216;DHT22;10765;50.954;5.322;2023-01-28T05:23:13;3.20;1.00
21216;DHT22;10765;50.954;5.322;2023-01-28T05:25:40;3.10;1.00
21216;DHT22;10765;50.954;5.322;2023-01-28T05:28:07;2.90;1.00
21216;DHT22;10765;50.954;5.322;2023-01-28T05:30:36;3.00;1.00
21216;DHT22;10765;50.954;5.322;2023-01-28T05:33:03;3.00;1.00
21216;DHT22;10765;50.954;5.322;2023-01-28T05:35:30;3.10;1.00
21216;DHT22;10765;50.954;5.322;2023-01-28T05:37:57;3.10;1.00
21216;DHT22;10765;50.954;5.322;2023-01-28T05:40:24;3.00;1.00
21216;DHT22;10765;50.954;5.322;2023-01-28T05:42:51;3.00;1.00
21216;DHT22;10765;50.954;5.322;2023-01-28T05:45:18;3.00;1.00
21216;DHT22;10765;50.954;5.322;2023-01-28T05:47:46;2.90;1.00
21216;DHT22;10765;50.954;5.322;2023-01-28T05:50:14;2.90;1.00
21216;DHT22;10765;50.954;5.322;2023-01-28T05:52:41;3.00;1.00
21216;DHT22;10765;50.954;5.322;2023-01-28T05:55:08;3.00;1.00
21216;DHT22;10765;50.954;5.322;2023-01-28T05:57:35;3.00;1.00
21216;DHT22;10765;50.954;5.322;2023-01-28T06:00:03;3.00;1.00
21216;DHT22;10765;50.954;5.322;2023-01-28T06:02:31;2.90;1.00
21216;DHT22;10765;50.954;5.322;2023-01-28T06:04:59;2.80;1.00
21216;DHT22;10765;50.954;5.322;2023-01-28T06:07:26;2.80;1.00
21216;DHT22;10765;50.954;5.322;2023-01-28T06:09:53;2.80;1.00
21216;DHT22;10765;50.954;5.322;2023-01-28T06:12:20;2.90;1.00
21216;DHT22;10765;50.954;5.322;2023-01-28T06:14:47;2.90;1.00
21216;DHT22;10765;50.954;5.322;2023-01-28T06:17:14;3.00;1.00
21216;DHT22;10765;50.954;5.322;2023-01-28T06:19:42;2.90;1.00
21216;DHT22;10765;50.954;5.322;2023-01-28T06:22:10;2.80;1.00
21216;DHT22;10765;50.954;5.322;2023-01-28T06:24:37;2.70;1.00
21216;DHT22;10765;50.954;5.322;2023-01-28T06:27:04;2.80;1.00
21216;DHT22;10765;50.954;5.322;2023-01-28T06:29:31;2.70;1.00
21216;DHT22;10765;50.954;5.322;2023-01-28T06:31:58;2.70;1.00
21216;DHT22;10765;50.954;5.322;2023-01-28T06:34:25;2.70;1.00
21216;DHT22;10765;50.954;5.322;2023-01-28T06:36:52;2.70;1.00
21216;DHT22;10765;50.954;5.322;2023-01-28T06:39:20;2.70;1.00
21216;DHT22;10765;50.954;5.322;2023-01-28T06:41:48;2.70;1.00
21216;DHT22;10765;50.954;5.322;2023-01-28T06:44:15;2.60;1.00
21216;DHT22;10765;50.954;5.322;2023-01-28T06:46:42;2.60;1.00
21216;DHT22;10765;50.954;5.322;2023-01-28T06:49:09;2.70;1.00
21216;DHT22;10765;50.954;5.322;2023-01-28T06:51:36;2.60;1.00
21216;DHT22;10765;50.954;5.322;2023-01-28T06:54:03;2.60;1.00
21216;DHT22;10765;50.954;5.322;2023-01-28T06:56:31;2.60;1.00
21216;DHT22;10765;50.954;5.322;2023-01-28T06:58:58;2.60;1.00
21216;DHT22;10765;50.954;5.322;2023-01-28T07:01:25;2.60;1.00
21216;DHT22;10765;50.954;5.322;2023-01-28T07:03:52;2.50;1.00
21216;DHT22;10765;50.954;5.322;2023-01-28T07:06:19;2.50;1.00
21216;DHT22;10765;50.954;5.322;2023-01-28T07:08:46;2.50;1.00
21216;DHT22;10765;50.954;5.322;2023-01-28T07:11:14;2.50;1.00
21216;DHT22;10765;50.954;5.322;2023-01-28T07:13:42;2.40;1.00
21216;DHT22;10765;50.954;5.322;2023-01-28T07:16:09;2.60;1.00
21216;DHT22;10765;50.954;5.322;2023-01-28T07:18:36;2.60;1.00
21216;DHT22;10765;50.954;5.322;2023-01-28T07:21:03;2.60;1.00
21216;DHT22;10765;50.954;5.322;2023-01-28T07:23:30;2.60;1.00
21216;DHT22;10765;50.954;5.322;2023-01-28T07:26:00;2.70;1.00
21216;DHT22;10765;50.954;5.322;2023-01-28T07:28:27;2.70;1.00
21216;DHT22;10765;50.954;5.322;2023-01-28T07:30:55;2.60;1.00
21216;DHT22;10765;50.954;5.322;2023-01-28T07:33:22;2.70;1.00
21216;DHT22;10765;50.954;5.322;2023-01-28T07:35:49;2.70;1.00
21216;DHT22;10765;50.954;5.322;2023-01-28T07:38:16;2.70;1.00
21216;DHT22;10765;50.954;5.322;2023-01-28T07:40:43;2.60;1.00
21216;DHT22;10765;50.954;5.322;2023-01-28T07:43:10;2.50;1.00
21216;DHT22;10765;50.954;5.322;2023-01-28T07:45:37;2.50;1.00
21216;DHT22;10765;50.954;5.322;2023-01-28T07:48:08;2.60;1.00
21216;DHT22;10765;50.954;5.322;2023-01-28T07:50:36;2.60;1.00
21216;DHT22;10765;50.954;5.322;2023-01-28T07:53:05;2.70;1.00
21216;DHT22;10765;50.954;5.322;2023-01-28T07:55:33;2.80;1.00
21216;DHT22;10765;50.954;5.322;2023-01-28T07:58:01;2.80;1.00
21216;DHT22;10765;50.954;5.322;2023-01-28T08:00:30;2.90;1.00
21216;DHT22;10765;50.954;5.322;2023-01-28T08:02:59;2.90;1.00
21216;DHT22;10765;50.954;5.322;2023-01-28T08:05:31;2.80;1.00
21216;DHT22;10765;50.954;5.322;2023-01-28T08:08:04;2.80;1.00
21216;DHT22;10765;50.954;5.322;2023-01-28T08:10:31;2.80;1.00
21216;DHT22;10765;50.954;5.322;2023-01-28T08:12:58;2.80;1.00
21216;DHT22;10765;50.954;5.322;2023-01-28T08:15:25;2.90;1.00
21216;DHT22;10765;50.954;5.322;2023-01-28T08:17:53;2.90;1.00
21216;DHT22;10765;50.954;5.322;2023-01-28T08:20:20;3.00;1.00
21216;DHT22;10765;50.954;5.322;2023-01-28T08:22:48;3.10;1.00
21216;DHT22;10765;50.954;5.322;2023-01-28T08:25:15;3.10;1.00
21216;DHT22;10765;50.954;5.322;2023-01-28T08:27:42;3.00;1.00
21216;DHT22;10765;50.954;5.322;2023-01-28T08:30:10;3.10;1.00
21216;DHT22;10765;50.954;5.322;2023-01-28T08:32:37;3.10;1.00
21216;DHT22;10765;50.954;5.322;2023-01-28T08:35:05;3.30;1.00
21216;DHT22;10765;50.954;5.322;2023-01-28T08:37:32;3.30;1.00
21216;DHT22;10765;50.954;5.322;2023-01-28T08:40:01;3.20;1.00
21216;DHT22;10765;50.954;5.322;2023-01-28T08:42:28;3.00;1.00
21216;DHT22;10765;50.954;5.322;2023-01-28T08:44:55;2.90;1.00
21216;DHT22;10765;50.954;5.322;2023-01-28T08:47:22;2.90;1.00
21216;DHT22;10765;50.954;5.322;2023-01-28T08:49:49;3.10;1.00
21216;DHT22;10765;50.954;5.322;2023-01-28T08:52:16;3.00;1.00
21216;DHT22;10765;50.954;5.322;2023-01-28T08:54:43;3.10;1.00
21216;DHT22;10765;50.954;5.322;2023-01-28T08:57:11;3.30;1.00
21216;DHT22;10765;50.954;5.322;2023-01-28T08:59:38;3.20;1.00
21216;DHT22;10765;50.954;5.322;2023-01-28T09:02:12;3.20;1.00
21216;DHT22;10765;50.954;5.322;2023-01-28T09:04:39;3.30;1.00
21216;DHT22;10765;50.954;5.322;2023-01-28T09:07:06;3.20;1.00
21216;DHT22;10765;50.954;5.322;2023-01-28T09:09:33;3.10;1.00
21216;DHT22;10765;50.954;5.322;2023-01-28T09:12:00;3.00;1.00
21216;DHT22;10765;50.954;5.322;2023-01-28T09:14:28;2.90;1.00
21216;DHT22;10765;50.954;5.322;2023-01-28T09:16:55;2.90;1.00
21216;DHT22;10765;50.954;5.322;2023-01-28T09:19:22;2.90;1.00
21216;DHT22;10765;50.954;5.322;2023-01-28T09:21:49;3.00;1.00
21216;DHT22;10765;50.954;5.322;2023-01-28T09:24:16;3.10;1.00
21216;DHT22;10765;50.954;5.322;2023-01-28T09:26:43;3.20;1.00
21216;DHT22;10765;50.954;5.322;2023-01-28T09:29:10;3.30;1.00
21216;DHT22;10765;50.954;5.322;2023-01-28T09:31:39;3.40;1.00
21216;DHT22;10765;50.954;5.322;2023-01-28T09:34:06;3.40;1.00
21216;DHT22;10765;50.954;5.322;2023-01-28T09:36:33;3.50;1.00
21216;DHT22;10765;50.954;5.322;2023-01-28T09:39:00;3.50;1.00
21216;DHT22;10765;50.954;5.322;2023-01-28T09:41:28;3.60;1.00
21216;DHT22;10765;50.954;5.322;2023-01-28T09:44:04;3.80;1.00
21216;DHT22;10765;50.954;5.322;2023-01-28T09:46:34;3.60;1.00
21216;DHT22;10765;50.954;5.322;2023-01-28T09:49:10;3.70;1.00
21216;DHT22;10765;50.954;5.322;2023-01-28T09:51:41;3.70;1.00
21216;DHT22;10765;50.954;5.322;2023-01-28T09:54:18;3.60;1.00
21216;DHT22;10765;50.954;5.322;2023-01-28T09:56:52;3.60;1.00
21216;DHT22;10765;50.954;5.322;2023-01-28T09:59:23;3.50;1.00
21216;DHT22;10765;50.954;5.322;2023-01-28T10:01:54;3.30;1.00
21216;DHT22;10765;50.954;5.322;2023-01-28T10:04:38;3.20;1.00
21216;DHT22;10765;50.954;5.322;2023-01-28T10:07:19;3.00;1.00
21216;DHT22;10765;50.954;5.322;2023-01-28T10:09:56;2.90;1.00
21216;DHT22;10765;50.954;5.322;2023-01-28T10:12:38;3.20;1.00
21216;DHT22;10765;50.954;5.322;2023-01-28T10:15:25;3.70;1.00
21216;DHT22;10765;50.954;5.322;2023-01-28T10:17:57;3.90;1.00
21216;DHT22;10765;50.954;5.322;2023-01-28T10:20:31;4.10;1.00
21216;DHT22;10765;50.954;5.322;2023-01-28T10:23:05;4.30;1.00
21216;DHT22;10765;50.954;5.322;2023-01-28T10:25:36;4.30;1.00
21216;DHT22;10765;50.954;5.322;2023-01-28T10:28:12;4.30;1.00
21216;DHT22;10765;50.954;5.322;2023-01-28T10:30:42;4.70;1.00
21216;DHT22;10765;50.954;5.322;2023-01-28T10:33:17;4.70;1.00
21216;DHT22;10765;50.954;5.322;2023-01-28T10:35:45;4.30;1.00
21216;DHT22;10765;50.954;5.322;2023-01-28T10:38:15;4.10;1.00
21216;DHT22;10765;50.954;5.322;2023-01-28T10:40:43;4.10;1.00
21216;DHT22;10765;50.954;5.322;2023-01-28T10:43:13;4.00;1.00
21216;DHT22;10765;50.954;5.322;2023-01-28T10:45:44;3.90;1.00
21216;DHT22;10765;50.954;5.322;2023-01-28T10:48:20;4.10;1.00
21216;DHT22;10765;50.954;5.322;2023-01-28T10:50:51;4.30;1.00
21216;DHT22;10765;50.954;5.322;2023-01-28T10:53:18;4.40;1.00
21216;DHT22;10765;50.954;5.322;2023-01-28T10:55:49;4.30;1.00
21216;DHT22;10765;50.954;5.322;2023-01-28T10:58:25;4.00;1.00
21216;DHT22;10765;50.954;5.322;2023-01-28T11:00:54;3.80;1.00
21216;DHT22;10765;50.954;5.322;2023-01-28T11:03:22;3.70;1.00
21216;DHT22;10765;50.954;5.322;2023-01-28T11:05:54;3.70;1.00
21216;DHT22;10765;50.954;5.322;2023-01-28T11:08:22;3.80;1.00
21216;DHT22;10765;50.954;5.322;2023-01-28T11:10:50;3.80;1.00
21216;DHT22;10765;50.954;5.322;2023-01-28T11:13:19;4.00;1.00
21216;DHT22;10765;50.954;5.322;2023-01-28T11:15:47;3.90;1.00
21216;DHT22;10765;50.954;5.322;2023-01-28T11:18:17;3.90;1.00
21216;DHT22;10765;50.954;5.322;2023-01-28T11:20:51;3.80;1.00
21216;DHT22;10765;50.954;5.322;2023-01-28T11:23:22;3.50;1.00
21216;DHT22;10765;50.954;5.322;2023-01-28T11:26:01;3.50;1.00
21216;DHT22;10765;50.954;5.322;2023-01-28T11:28:29;3.50;1.00
21216;DHT22;10765;50.954;5.322;2023-01-28T11:30:58;3.60;1.00
21216;DHT22;10765;50.954;5.322;2023-01-28T11:33:31;3.80;1.00
21216;DHT22;10765;50.954;5.322;2023-01-28T11:36:04;3.70;1.00
21216;DHT22;10765;50.954;5.322;2023-01-28T11:38:33;3.80;1.00
21216;DHT22;10765;50.954;5.322;2023-01-28T11:41:00;3.90;1.00
21216;DHT22;10765;50.954;5.322;2023-01-28T11:43:29;3.90;1.00
21216;DHT22;10765;50.954;5.322;2023-01-28T11:46:07;3.90;1.00
21216;DHT22;10765;50.954;5.322;2023-01-28T11:48:41;4.20;1.00
21216;DHT22;10765;50.954;5.322;2023-01-28T11:51:28;4.30;1.00
21216;DHT22;10765;50.954;5.322;2023-01-28T11:54:20;4.30;1.00
21216;DHT22;10765;50.954;5.322;2023-01-28T11:57:12;4.30;1.00
21216;DHT22;10765;50.954;5.322;2023-01-28T11:59:53;4.30;1.00
21216;DHT22;10765;50.954;5.322;2023-01-28T12:02:36;4.10;1.00
21216;DHT22;10765;50.954;5.322;2023-01-28T12:05:27;4.00;1.00
21216;DHT22;10765;50.954;5.322;2023-01-28T12:08:04;4.00;1.00
21216;DHT22;10765;50.954;5.322;2023-01-28T12:10:39;3.90;1.00
21216;DHT22;10765;50.954;5.322;2023-01-28T12:13:30;4.10;1.00
21216;DHT22;10765;50.954;5.322;2023-01-28T12:16:24;4.20;1.00
21216;DHT22;10765;50.954;5.322;2023-01-28T12:22:18;4.80;1.00
21216;DHT22;10765;50.954;5.322;2023-01-28T12:25:01;4.80;1.00
21216;DHT22;10765;50.954;5.322;2023-01-28T12:27:38;4.50;1.00
21216;DHT22;10765;50.954;5.322;2023-01-28T12:30:17;4.60;1.00
21216;DHT22;10765;50.954;5.322;2023-01-28T12:32:55;4.50;1.00
21216;DHT22;10765;50.954;5.322;2023-01-28T12:35:43;4.60;1.00
21216;DHT22;10765;50.954;5.322;2023-01-28T12:38:20;5.00;1.00
21216;DHT22;10765;50.954;5.322;2023-01-28T12:40:54;5.20;1.00
21216;DHT22;10765;50.954;5.322;2023-01-28T12:43:41;5.50;1.00
21216;DHT22;10765;50.954;5.322;2023-01-28T12:46:16;5.40;1.00
21216;DHT22;10765;50.954;5.322;2023-01-28T12:48:46;5.10;1.00
21216;DHT22;10765;50.954;5.322;2023-01-28T12:51:17;5.30;1.00
21216;DHT22;10765;50.954;5.322;2023-01-28T12:53:50;5.20;1.00
21216;DHT22;10765;50.954;5.322;2023-01-28T12:56:21;5.20;1.00
21216;DHT22;10765;50.954;5.322;2023-01-28T12:58:54;5.20;1.00
21216;DHT22;10765;50.954;5.322;2023-01-28T13:01:26;5.30;1.00
21216;DHT22;10765;50.954;5.322;2023-01-28T13:04:02;5.80;1.00
21216;DHT22;10765;50.954;5.322;2023-01-28T13:06:34;5.80;1.00
21216;DHT22;10765;50.954;5.322;2023-01-28T13:09:09;5.70;1.00
21216;DHT22;10765;50.954;5.322;2023-01-28T13:11:38;5.50;1.00
21216;DHT22;10765;50.954;5.322;2023-01-28T13:14:07;5.20;1.00
21216;DHT22;10765;50.954;5.322;2023-01-28T13:16:35;5.10;1.00
21216;DHT22;10765;50.954;5.322;2023-01-28T13:19:07;4.90;1.00
21216;DHT22;10765;50.954;5.322;2023-01-28T13:21:35;6.00;1.00
21216;DHT22;10765;50.954;5.322;2023-01-28T13:24:16;7.50;1.00
21216;DHT22;10765;50.954;5.322;2023-01-28T13:26:46;8.40;1.00
21216;DHT22;10765;50.954;5.322;2023-01-28T13:29:21;8.50;1.00
21216;DHT22;10765;50.954;5.322;2023-01-28T13:31:54;8.00;1.00
21216;DHT22;10765;50.954;5.322;2023-01-28T13:34:34;7.10;1.00
21216;DHT22;10765;50.954;5.322;2023-01-28T13:37:04;6.40;1.00
21216;DHT22;10765;50.954;5.322;2023-01-28T13:39:34;5.70;1.00
21216;DHT22;10765;50.954;5.322;2023-01-28T13:42:19;5.30;1.00
21216;DHT22;10765;50.954;5.322;2023-01-28T13:44:49;5.10;1.00
21216;DHT22;10765;50.954;5.322;2023-01-28T13:47:23;5.00;1.00
21216;DHT22;10765;50.954;5.322;2023-01-28T13:49:55;5.10;1.00
21216;DHT22;10765;50.954;5.322;2023-01-28T13:52:26;5.00;1.00
21216;DHT22;10765;50.954;5.322;2023-01-28T13:54:56;5.00;1.00
21216;DHT22;10765;50.954;5.322;2023-01-28T13:57:55;5.00;1.00
21216;DHT22;10765;50.954;5.322;2023-01-28T14:00:40;5.10;1.00
21216;DHT22;10765;50.954;5.322;2023-01-28T14:03:35;5.30;1.00
21216;DHT22;10765;50.954;5.322;2023-01-28T14:06:42;5.30;1.00
21216;DHT22;10765;50.954;5.322;2023-01-28T14:09:35;5.40;1.00
21216;DHT22;10765;50.954;5.322;2023-01-28T14:12:44;5.20;1.00
21216;DHT22;10765;50.954;5.322;2023-01-28T14:15:24;4.90;1.00
21216;DHT22;10765;50.954;5.322;2023-01-28T14:17:58;4.90;1.00
21216;DHT22;10765;50.954;5.322;2023-01-28T14:20:29;4.80;1.00
21216;DHT22;10765;50.954;5.322;2023-01-28T14:23:03;4.90;1.00
21216;DHT22;10765;50.954;5.322;2023-01-28T14:25:35;5.00;1.00
21216;DHT22;10765;50.954;5.322;2023-01-28T14:28:05;4.90;1.00
21216;DHT22;10765;50.954;5.322;2023-01-28T14:30:46;4.50;1.00
21216;DHT22;10765;50.954;5.322;2023-01-28T14:33:16;4.50;1.00
21216;DHT22;10765;50.954;5.322;2023-01-28T14:35:45;4.40;1.00
21216;DHT22;10765;50.954;5.322;2023-01-28T14:38:16;4.70;1.00
21216;DHT22;10765;50.954;5.322;2023-01-28T14:40:47;4.90;1.00
21216;DHT22;10765;50.954;5.322;2023-01-28T14:43:18;5.30;1.00
21216;DHT22;10765;50.954;5.322;2023-01-28T14:46:06;5.40;1.00
21216;DHT22;10765;50.954;5.322;2023-01-28T14:48:41;5.00;1.00
21216;DHT22;10765;50.954;5.322;2023-01-28T14:51:20;5.20;1.00
21216;DHT22;10765;50.954;5.322;2023-01-28T14:57:05;6.90;1.00
21216;DHT22;10765;50.954;5.322;2023-01-28T14:59:40;6.40;1.00
21216;DHT22;10765;50.954;5.322;2023-01-28T15:02:17;7.80;1.00
21216;DHT22;10765;50.954;5.322;2023-01-28T15:04:45;9.60;1.00
21216;DHT22;10765;50.954;5.322;2023-01-28T15:07:18;10.00;1.00
21216;DHT22;10765;50.954;5.322;2023-01-28T15:09:45;8.40;1.00
21216;DHT22;10765;50.954;5.322;2023-01-28T15:12:14;8.80;1.00
21216;DHT22;10765;50.954;5.322;2023-01-28T15:14:42;9.60;1.00
21216;DHT22;10765;50.954;5.322;2023-01-28T15:17:21;9.10;1.00
21216;DHT22;10765;50.954;5.322;2023-01-28T15:19:51;6.80;1.00
21216;DHT22;10765;50.954;5.322;2023-01-28T15:22:23;5.60;1.00
21216;DHT22;10765;50.954;5.322;2023-01-28T15:24:51;4.70;1.00
21216;DHT22;10765;50.954;5.322;2023-01-28T15:27:24;4.50;1.00
21216;DHT22;10765;50.954;5.322;2023-01-28T15:29:53;4.40;1.00
21216;DHT22;10765;50.954;5.322;2023-01-28T15:32:23;4.00;1.00
21216;DHT22;10765;50.954;5.322;2023-01-28T15:34:53;3.70;1.00
21216;DHT22;10765;50.954;5.322;2023-01-28T15:37:20;3.50;1.00
21216;DHT22;10765;50.954;5.322;2023-01-28T15:39:47;3.40;1.00
21216;DHT22;10765;50.954;5.322;2023-01-28T15:42:18;3.40;1.00
21216;DHT22;10765;50.954;5.322;2023-01-28T15:44:47;3.20;1.00
21216;DHT22;10765;50.954;5.322;2023-01-28T15:47:16;3.10;1.00
21216;DHT22;10765;50.954;5.322;2023-01-28T15:49:46;3.10;1.00
21216;DHT22;10765;50.954;5.322;2023-01-28T15:52:15;3.00;1.00
21216;DHT22;10765;50.954;5.322;2023-01-28T15:54:44;2.90;1.00
21216;DHT22;10765;50.954;5.322;2023-01-28T15:57:18;3.10;1.00
21216;DHT22;10765;50.954;5.322;2023-01-28T15:59:45;3.20;1.00
21216;DHT22;10765;50.954;5.322;2023-01-28T16:02:20;3.20;1.00
21216;DHT22;10765;50.954;5.322;2023-01-28T16:04:55;3.10;1.00
21216;DHT22;10765;50.954;5.322;2023-01-28T16:07:25;3.00;1.00
21216;DHT22;10765;50.954;5.322;2023-01-28T16:09:54;2.90;1.00
21216;DHT22;10765;50.954;5.322;2023-01-28T16:12:22;2.80;1.00
21216;DHT22;10765;50.954;5.322;2023-01-28T16:14:54;2.70;1.00
21216;DHT22;10765;50.954;5.322;2023-01-28T16:17:24;2.50;1.00
21216;DHT22;10765;50.954;5.322;2023-01-28T16:19:56;2.10;1.00
21216;DHT22;10765;50.954;5.322;2023-01-28T16:22:32;1.90;1.00
21216;DHT22;10765;50.954;5.322;2023-01-28T16:25:00;1.70;1.00
21216;DHT22;10765;50.954;5.322;2023-01-28T16:27:27;1.60;1.00
21216;DHT22;10765;50.954;5.322;2023-01-28T16:29:56;1.60;1.00
21216;DHT22;10765;50.954;5.322;2023-01-28T16:32:33;1.70;1.00
21216;DHT22;10765;50.954;5.322;2023-01-28T16:35:01;1.80;1.00
21216;DHT22;10765;50.954;5.322;2023-01-28T16:37:30;1.70;1.00